Time;durP1;ratioP1;P1;durP2;ratioP2;P2;SDS_P1;SDS_P2;PMS_P1;PMS_P2;Temp;Humidity;BMP_temperature;BMP_pressure;BME280_temperature;BME280_humidity;BME280_pressure;Samples;Min_cycle;Max_cycle;Signal;HPM_P1;HPM_P2
2022/12/11 00:01:26;;;;;;;56.22;17.83;;;;;;;0.67;100.00;101135.59;5038766;28;20063;-64
2022/12/11 00:03:52;;;;;;;66.15;19.38;;;;;;;0.71;100.00;101133.72;5024957;28;20764;-64
2022/12/11 00:06:21;;;;;;;59.83;18.73;;;;;;;0.63;100.00;101135.81;5047811;28;20438;-64
2022/12/11 00:08:52;;;;;;;65.70;20.95;;;;;;;0.57;100.00;101131.81;5036123;28;20470;-63
2022/12/11 00:11:20;;;;;;;67.50;19.08;;;;;;;0.58;100.00;101139.47;5040694;28;20048;-63
2022/12/11 00:13:46;;;;;;;60.80;17.07;;;;;;;0.54;100.00;101139.69;5052324;28;20049;-64
2022/12/11 00:16:13;;;;;;;63.53;18.25;;;;;;;0.62;100.00;101136.75;5048142;28;20285;-65
2022/12/11 00:18:40;;;;;;;53.75;17.13;;;;;;;0.59;100.00;101133.41;5060953;28;20528;-65
2022/12/11 00:21:09;;;;;;;53.72;17.50;;;;;;;0.54;100.00;101131.94;5045073;28;20056;-64
2022/12/11 00:23:37;;;;;;;64.32;19.58;;;;;;;0.58;100.00;101138.63;5041934;28;20056;-63
2022/12/11 00:26:13;;;;;;;60.88;17.48;;;;;;;0.69;100.00;101133.78;5040626;28;20048;-64
2022/12/11 00:28:39;;;;;;;53.25;18.45;;;;;;;0.68;100.00;101137.25;5032507;28;20449;-65
2022/12/11 00:31:17;;;;;;;53.97;17.63;;;;;;;0.73;100.00;101137.06;5040955;28;20053;-65
2022/12/11 00:33:44;;;;;;;53.45;16.80;;;;;;;0.73;100.00;101131.91;5037267;28;20486;-64
2022/12/11 00:36:13;;;;;;;47.80;16.40;;;;;;;0.73;100.00;101126.72;5038985;28;20049;-63
2022/12/11 00:38:40;;;;;;;54.78;16.90;;;;;;;0.68;100.00;101131.28;5005229;28;20705;-63
2022/12/11 00:41:06;;;;;;;47.78;16.17;;;;;;;0.71;100.00;101141.47;5038129;28;20497;-65
2022/12/11 00:43:33;;;;;;;54.63;16.80;;;;;;;0.77;100.00;101139.41;5024954;28;20385;-64
2022/12/11 00:45:59;;;;;;;56.05;18.75;;;;;;;0.79;100.00;101141.91;5039574;28;20045;-65
2022/12/11 00:48:25;;;;;;;56.63;17.20;;;;;;;0.78;100.00;101141.09;5037961;28;20122;-64
2022/12/11 00:50:52;;;;;;;58.72;17.48;;;;;;;0.79;100.00;101145.34;5036684;28;20048;-65
2022/12/11 00:53:19;;;;;;;62.42;18.75;;;;;;;0.78;100.00;101132.47;5045024;28;20053;-64
2022/12/11 00:55:45;;;;;;;52.15;16.92;;;;;;;0.83;100.00;101129.69;5037182;28;20061;-64
2022/12/11 00:58:12;;;;;;;57.03;18.52;;;;;;;0.82;100.00;101133.19;5035794;28;20129;-64
2022/12/11 01:00:39;;;;;;;55.30;18.17;;;;;;;0.87;100.00;101129.47;5036987;28;20061;-65
2022/12/11 01:03:06;;;;;;;57.30;18.27;;;;;;;0.81;100.00;101126.34;5037617;28;20049;-64
2022/12/11 01:05:33;;;;;;;52.95;16.30;;;;;;;0.83;100.00;101125.34;5039915;28;20407;-64
2022/12/11 01:07:59;;;;;;;59.90;17.60;;;;;;;0.85;100.00;101117.53;5030641;28;20730;-65
2022/12/11 01:10:26;;;;;;;49.92;17.90;;;;;;;0.87;100.00;101113.97;5044175;28;20585;-63
2022/12/11 01:12:54;;;;;;;51.00;17.48;;;;;;;0.91;100.00;101125.81;5033847;28;20048;-63
2022/12/11 01:15:22;;;;;;;56.00;17.15;;;;;;;0.91;100.00;101119.81;5040338;28;20057;-65
2022/12/11 01:17:49;;;;;;;46.22;16.75;;;;;;;0.94;100.00;101111.91;5039076;28;20696;-64
2022/12/11 01:20:17;;;;;;;57.10;19.48;;;;;;;0.93;100.00;101110.25;5031584;28;20053;-63
2022/12/11 01:22:43;;;;;;;53.58;18.00;;;;;;;0.88;100.00;101117.38;5026806;28;20056;-64
2022/12/11 01:25:10;;;;;;;55.08;16.67;;;;;;;0.81;100.00;101116.84;5038701;28;20073;-63
2022/12/11 01:27:38;;;;;;;49.20;17.05;;;;;;;0.89;100.00;101117.31;5037512;28;20053;-65
2022/12/11 01:30:06;;;;;;;56.10;18.02;;;;;;;0.96;100.00;101118.69;5033970;28;20064;-64
2022/12/11 01:32:34;;;;;;;;;;;;;;;0.95;100.00;101113.56;5043499;28;20065;-65
2022/12/11 01:35:06;;;;;;;53.72;17.85;;;;;;;0.93;100.00;101120.56;5043586;28;19936;-63
2022/12/11 01:37:33;;;;;;;55.22;16.42;;;;;;;0.90;100.00;101120.72;5037522;28;20052;-64
2022/12/11 01:40:00;;;;;;;56.42;18.63;;;;;;;0.92;100.00;101106.81;5031934;28;20053;-65
2022/12/11 01:42:28;;;;;;;59.65;18.48;;;;;;;0.84;100.00;101111.53;5034730;28;20458;-64
2022/12/11 01:45:52;;;;;;;53.88;17.38;;;;;;;0.87;100.00;101105.38;5037758;28;20674;-64
2022/12/11 01:48:36;;;;;;;57.53;17.02;;;;;;;0.78;100.00;101109.25;4974963;28;20074;-64
2022/12/11 01:51:07;;;;;;;46.40;16.15;;;;;;;0.78;100.00;101106.66;4978860;28;20148;-63
2022/12/11 01:53:39;;;;;;;55.05;17.85;;;;;;;0.79;100.00;101108.34;4973240;28;20430;-63
2022/12/11 01:56:07;;;;;;;55.22;17.45;;;;;;;0.79;100.00;101109.19;4976726;28;20575;-66
2022/12/11 01:58:39;;;;;;;59.05;19.35;;;;;;;0.85;100.00;101104.63;4974981;28;20520;-65
2022/12/11 02:01:05;;;;;;;58.40;18.30;;;;;;;0.81;100.00;101114.28;4973392;28;20245;-66
2022/12/11 02:03:32;;;;;;;55.08;18.33;;;;;;;0.86;100.00;101111.44;4982544;28;20076;-66
2022/12/11 02:06:00;;;;;;;63.53;19.17;;;;;;;0.91;100.00;101107.72;4976162;28;20062;-66
2022/12/11 02:08:26;;;;;;;64.50;18.95;;;;;;;0.86;100.00;101122.59;4976498;28;20060;-65
2022/12/11 02:11:09;;;;;;;60.92;17.58;;;;;;;0.95;100.00;101111.00;4974420;28;20056;-66
2022/12/11 02:14:03;;;;;;;69.75;19.17;;;;;;;0.86;100.00;101116.63;4969938;28;20062;-66
2022/12/11 02:16:49;;;;;;;58.90;17.98;;;;;;;0.94;100.00;101110.16;4981517;28;20051;-66
2022/12/11 02:19:41;;;;;;;63.05;16.75;;;;;;;0.92;100.00;101119.75;5013352;28;20056;-66
2022/12/11 02:22:13;;;;;;;69.05;18.38;;;;;;;0.92;100.00;101111.13;5039310;28;20053;-66
2022/12/11 02:25:02;;;;;;;61.97;18.52;;;;;;;0.95;100.00;101111.81;5027280;28;20044;-66
2022/12/11 02:27:43;;;;;;;62.45;18.48;;;;;;;0.92;100.00;101104.25;5040854;28;20139;-65
2022/12/11 02:30:12;;;;;;;67.38;18.70;;;;;;;0.89;100.00;101101.81;5027679;28;20100;-65
2022/12/11 02:32:55;;;;;;;85.13;19.98;;;;;;;0.96;100.00;101098.00;5034514;28;20055;-66
2022/12/11 02:35:36;;;;;;;61.63;16.88;;;;;;;0.99;100.00;101095.25;5035128;28;20136;-64
2022/12/11 02:38:16;;;;;;;83.50;19.70;;;;;;;0.98;100.00;101098.75;5037374;28;20057;-66
2022/12/11 02:40:46;;;;;;;69.30;18.77;;;;;;;1.01;100.00;101104.69;5033180;28;20049;-66
2022/12/11 02:43:15;;;;;;;77.20;19.48;;;;;;;0.98;100.00;101098.75;5043638;28;20049;-65
2022/12/11 02:45:44;;;;;;;65.28;18.63;;;;;;;0.93;100.00;101097.31;5034875;28;20057;-65
2022/12/11 02:48:11;;;;;;;75.13;16.75;;;;;;;0.94;100.00;101094.66;5036085;28;20544;-65
2022/12/11 02:50:50;;;;;;;90.32;20.38;;;;;;;0.88;100.00;101089.81;5034607;28;20052;-63
2022/12/11 02:53:20;;;;;;;78.20;20.25;;;;;;;0.87;100.00;101100.22;5028444;28;20798;-64
2022/12/11 02:55:53;;;;;;;61.78;18.20;;;;;;;0.88;100.00;101097.56;5037646;28;20723;-64
2022/12/11 02:58:44;;;;;;;62.50;17.90;;;;;;;0.81;100.00;101096.19;5040362;28;20049;-67
2022/12/11 03:01:11;;;;;;;62.63;19.52;;;;;;;0.70;100.00;101091.56;5044352;28;20049;-64
2022/12/11 03:03:37;;;;;;;68.78;20.10;;;;;;;0.78;100.00;101089.44;5035456;28;20106;-64
2022/12/11 03:06:04;;;;;;;73.38;20.42;;;;;;;0.79;100.00;101083.34;5037382;28;20049;-65
2022/12/11 03:08:31;;;;;;;72.90;19.42;;;;;;;0.84;100.00;101084.88;5044740;28;20048;-64
2022/12/11 03:10:57;;;;;;;69.38;19.80;;;;;;;0.83;100.00;101084.03;5032236;28;20045;-64
2022/12/11 03:13:24;;;;;;;77.47;21.35;;;;;;;0.85;100.00;101081.38;5045266;28;20071;-63
2022/12/11 03:16:11;;;;;;;67.50;20.48;;;;;;;0.85;100.00;101078.81;5034220;28;20048;-64
2022/12/11 03:19:11;;;;;;;71.78;21.17;;;;;;;0.79;100.00;101078.19;5037682;28;20059;-65
2022/12/11 03:21:55;;;;;;;63.25;19.35;;;;;;;0.82;100.00;101073.78;5003494;28;20409;-64
2022/12/11 03:24:32;;;;;;;73.70;20.63;;;;;;;0.82;100.00;101079.78;5046838;28;20060;-64
2022/12/11 03:27:04;;;;;;;67.88;21.27;;;;;;;0.84;100.00;101077.13;5040320;28;20409;-65
2022/12/11 03:29:41;;;;;;;64.55;19.02;;;;;;;0.83;100.00;101085.78;5040621;28;20536;-64
2022/12/11 03:32:12;;;;;;;57.05;17.90;;;;;;;0.85;100.00;101089.97;5041944;28;20064;-64
2022/12/11 03:34:43;;;;;;;58.72;19.92;;;;;;;0.93;100.00;101089.56;5039350;28;20597;-64
2022/12/11 03:37:12;;;;;;;63.30;19.17;;;;;;;0.91;100.00;101079.31;5042365;28;20052;-64
2022/12/11 03:39:45;;;;;;;67.03;19.63;;;;;;;0.99;100.00;101078.94;5040857;28;20044;-63
2022/12/11 03:42:13;;;;;;;59.70;18.88;;;;;;;1.04;100.00;101079.53;5040164;28;20045;-62
2022/12/11 03:44:41;;;;;;;;;;;;;;;1.09;100.00;101074.94;5035013;28;20045;-63
2022/12/11 03:47:09;;;;;;;63.28;18.17;;;;;;;1.09;100.00;101079.28;5037126;28;20026;-63
2022/12/11 03:49:40;;;;;;;69.30;20.13;;;;;;;1.14;100.00;101085.91;5044208;28;20048;-63
2022/12/11 03:52:10;;;;;;;58.20;18.52;;;;;;;1.15;100.00;101073.81;5033394;28;20052;-64
2022/12/11 03:54:38;;;;;;;60.90;18.98;;;;;;;1.13;100.00;101073.88;5040843;28;20080;-63
2022/12/11 03:57:07;;;;;;;54.70;18.00;;;;;;;1.15;100.00;101068.63;5031666;28;20045;-64
2022/12/11 03:59:37;;;;;;;58.20;19.35;;;;;;;1.17;100.00;101069.38;5039949;28;20088;-64
2022/12/11 04:02:09;;;;;;;58.58;17.88;;;;;;;1.12;100.00;101068.81;5045080;28;20787;-63
2022/12/11 04:04:40;;;;;;;66.60;20.13;;;;;;;1.18;100.00;101066.72;5040382;28;20044;-62
2022/12/11 04:07:08;;;;;;;58.53;18.45;;;;;;;1.23;100.00;101068.25;5033716;28;20093;-63
2022/12/11 04:09:35;;;;;;;66.07;19.95;;;;;;;1.18;100.00;101060.75;5028214;28;20441;-63
2022/12/11 04:12:01;;;;;;;63.88;20.73;;;;;;;1.23;100.00;101061.31;5029368;28;20505;-63
2022/12/11 04:24:13;;;;;;;59.80;19.65;;;;;;;1.18;100.00;101063.31;5045297;28;20112;-63
2022/12/11 04:25:29;;;;;;;60.63;19.73;;;;;;;1.17;100.00;101059.88;5043026;28;20045;-64
2022/12/11 04:27:55;;;;;;;61.33;19.38;;;;;;;1.14;100.00;101061.81;5037740;28;20045;-63
2022/12/11 04:30:24;;;;;;;61.67;20.17;;;;;;;1.18;100.00;101055.56;5047541;28;20052;-63
2022/12/11 04:32:59;;;;;;;57.72;19.42;;;;;;;1.16;100.00;101060.81;5040192;28;20056;-63
2022/12/11 04:35:25;;;;;;;52.42;19.08;;;;;;;1.14;100.00;101048.91;5043256;28;20485;-64
2022/12/11 04:37:51;;;;;;;57.67;19.33;;;;;;;1.15;100.00;101048.78;5033289;28;20053;-63
2022/12/11 04:40:19;;;;;;;64.15;19.83;;;;;;;1.26;100.00;101058.59;5017468;28;20466;-63
2022/12/11 04:42:45;;;;;;;58.13;20.60;;;;;;;1.25;100.00;101048.31;5041576;28;20112;-63
2022/12/11 04:45:12;;;;;;;53.28;19.55;;;;;;;1.18;100.00;101048.63;5039819;28;20045;-63
2022/12/11 04:47:39;;;;;;;58.33;19.70;;;;;;;1.26;100.00;101039.66;5037814;28;20057;-63
2022/12/11 04:50:08;;;;;;;55.15;19.27;;;;;;;1.32;100.00;101045.31;5029363;28;20045;-63
2022/12/11 04:52:34;;;;;;;49.55;18.92;;;;;;;1.33;100.00;101038.41;5036200;28;20052;-63
2022/12/11 04:55:04;;;;;;;52.88;18.67;;;;;;;1.43;100.00;101044.78;5037735;28;20057;-63
2022/12/11 04:57:30;;;;;;;56.78;19.02;;;;;;;1.47;100.00;101042.84;5042328;28;20127;-64
2022/12/11 04:59:57;;;;;;;59.63;20.80;;;;;;;1.55;100.00;101046.69;5044741;28;20561;-63
2022/12/11 05:02:25;;;;;;;61.78;19.63;;;;;;;1.58;100.00;101041.34;5018808;28;20569;-64
2022/12/11 05:04:51;;;;;;;56.15;20.48;;;;;;;1.63;100.00;101043.69;5039680;28;20477;-65
2022/12/11 05:07:18;;;;;;;54.38;19.88;;;;;;;1.58;100.00;101045.69;5031064;28;20508;-64
2022/12/11 05:09:44;;;;;;;57.65;20.48;;;;;;;1.65;100.00;101046.19;5044940;28;20060;-65
2022/12/11 05:12:11;;;;;;;55.50;19.60;;;;;;;1.73;100.00;101041.44;5045657;28;20051;-64
2022/12/11 05:14:37;;;;;;;46.80;17.83;;;;;;;1.69;100.00;101048.53;5033860;28;20060;-64
2022/12/11 05:17:04;;;;;;;56.28;20.15;;;;;;;1.66;100.00;101047.84;5041881;28;20053;-64
2022/12/11 05:19:30;;;;;;;57.65;20.77;;;;;;;1.57;100.00;101054.38;5037408;28;20115;-64
2022/12/11 05:22:00;;;;;;;;;;;;;;;1.53;100.00;101058.00;5035376;28;20048;-65
2022/12/11 05:24:26;;;;;;;50.50;18.83;;;;;;;1.51;100.00;101050.38;5026966;28;19941;-64
2022/12/11 05:26:53;;;;;;;40.17;18.50;;;;;;;1.47;100.00;101053.16;5044042;28;20128;-64
2022/12/11 05:29:19;;;;;;;43.08;19.13;;;;;;;1.45;100.00;101057.59;5046158;28;20049;-64
2022/12/11 05:31:46;;;;;;;42.70;17.92;;;;;;;1.42;100.00;101055.19;5037880;28;20067;-63
2022/12/11 05:34:14;;;;;;;53.42;19.95;;;;;;;1.39;100.00;101051.00;5039488;28;20060;-64
2022/12/11 05:36:40;;;;;;;51.67;19.43;;;;;;;1.44;100.00;101048.19;5028414;28;20053;-63
2022/12/11 05:39:06;;;;;;;49.38;20.27;;;;;;;1.49;100.00;101049.63;5043297;28;20271;-63
2022/12/11 05:41:33;;;;;;;48.63;19.55;;;;;;;1.53;100.00;101038.19;5038060;28;20061;-64
2022/12/11 05:43:59;;;;;;;44.55;18.55;;;;;;;1.52;100.00;101052.00;5036407;28;20049;-63
2022/12/11 05:46:28;;;;;;;51.08;19.08;;;;;;;1.55;100.00;101040.69;5036412;28;20528;-64
2022/12/11 05:48:56;;;;;;;;;;;;;;;1.56;100.00;101045.75;5034144;28;20057;-63
2022/12/11 05:51:23;;;;;;;44.25;18.85;;;;;;;1.45;100.00;101042.94;5030303;28;19958;-63
2022/12/11 05:53:51;;;;;;;40.97;18.10;;;;;;;1.48;100.00;101047.94;5033250;28;20654;-64
2022/12/11 05:56:20;;;;;;;45.78;19.40;;;;;;;1.45;100.00;101044.66;5040929;28;20091;-63
2022/12/11 05:58:47;;;;;;;42.95;17.02;;;;;;;1.43;100.00;101039.59;5031173;28;20053;-64
2022/12/11 06:01:20;;;;;;;49.90;19.20;;;;;;;1.47;100.00;101032.50;5040319;28;20052;-63
2022/12/11 06:03:47;;;;;;;49.20;19.33;;;;;;;1.52;100.00;101027.91;5036058;28;20053;-64
2022/12/11 06:06:14;;;;;;;46.70;18.45;;;;;;;1.58;100.00;101032.75;5020218;28;20056;-63
2022/12/11 06:08:41;;;;;;;45.22;20.13;;;;;;;1.53;100.00;101034.75;5038880;28;20056;-65
2022/12/11 06:11:07;;;;;;;40.42;18.27;;;;;;;1.39;100.00;101017.38;5033344;28;20457;-64
2022/12/11 06:13:34;;;;;;;41.97;17.10;;;;;;;1.34;100.00;101011.66;5018236;28;20801;-63
2022/12/11 06:16:02;;;;;;;40.38;17.92;;;;;;;1.31;100.00;101016.97;5039646;28;20060;-64
2022/12/11 06:18:29;;;;;;;35.67;16.67;;;;;;;1.28;100.00;101015.41;5025101;28;20057;-64
2022/12/11 06:20:56;;;;;;;35.53;15.82;;;;;;;1.34;100.00;101014.25;5041830;28;20045;-64
2022/12/11 06:23:22;;;;;;;35.88;16.40;;;;;;;1.44;100.00;101014.56;5023191;28;20049;-64
2022/12/11 06:25:48;;;;;;;33.55;15.60;;;;;;;1.45;100.00;101016.22;5036513;28;20049;-64
2022/12/11 06:28:15;;;;;;;36.25;17.83;;;;;;;1.44;100.00;101018.00;5035378;28;20568;-64
2022/12/11 06:30:41;;;;;;;34.33;16.33;;;;;;;1.47;100.00;101012.66;5031762;28;20049;-64
2022/12/11 06:33:08;;;;;;;39.45;16.38;;;;;;;1.36;100.00;101015.81;5034621;28;20056;-65
2022/12/11 06:35:34;;;;;;;36.47;17.23;;;;;;;1.32;100.00;101019.47;5038423;28;20045;-65
2022/12/11 06:38:09;;;;;;;36.25;16.13;;;;;;;1.31;100.00;101015.25;5047308;28;20063;-65
2022/12/11 06:40:36;;;;;;;33.50;15.95;;;;;;;1.32;100.00;101027.25;5039367;28;20041;-64
2022/12/11 06:43:02;;;;;;;40.42;16.65;;;;;;;1.34;100.00;101027.16;5042171;28;20104;-64
2022/12/11 06:45:29;;;;;;;37.20;17.10;;;;;;;1.36;100.00;101027.91;5030899;28;20037;-66
2022/12/11 06:47:57;;;;;;;33.95;16.10;;;;;;;1.35;100.00;101036.56;5031791;28;20061;-64
2022/12/11 06:50:23;;;;;;;33.70;17.13;;;;;;;1.34;100.00;101040.09;5036531;28;20656;-65
2022/12/11 06:52:49;;;;;;;34.88;16.33;;;;;;;1.34;100.00;101035.75;5037009;28;20063;-65
2022/12/11 06:55:16;;;;;;;38.05;15.85;;;;;;;1.32;100.00;101036.75;5034210;28;20416;-65
2022/12/11 06:57:43;;;;;;;37.63;17.75;;;;;;;1.29;100.00;101035.13;5041926;28;20053;-64
2022/12/11 07:00:10;;;;;;;34.35;16.48;;;;;;;1.34;100.00;101040.91;5020240;28;20065;-65
2022/12/11 07:02:37;;;;;;;38.10;16.77;;;;;;;1.39;100.00;101043.25;5030007;28;20045;-64
2022/12/11 07:05:04;;;;;;;32.03;13.75;;;;;;;1.33;100.00;101046.16;5008542;28;20041;-64
2022/12/11 07:07:31;;;;;;;30.38;13.50;;;;;;;1.25;100.00;101051.72;5032703;28;20049;-65
2022/12/11 07:09:57;;;;;;;34.63;15.48;;;;;;;1.34;100.00;101047.84;5029252;28;20049;-64
2022/12/11 07:12:33;;;;;;;29.42;14.70;;;;;;;1.29;100.00;101040.31;5038315;28;20788;-63
2022/12/11 07:14:59;;;;;;;27.88;13.00;;;;;;;1.27;100.00;101047.31;5006272;28;20057;-64
2022/12/11 07:17:28;;;;;;;30.05;14.70;;;;;;;1.23;100.00;101047.56;5039854;28;20140;-64
2022/12/11 07:19:54;;;;;;;32.67;14.70;;;;;;;1.12;100.00;101055.88;5043629;28;20044;-65
2022/12/11 07:22:21;;;;;;;27.20;13.77;;;;;;;1.15;100.00;101056.53;5041032;28;20072;-65
2022/12/11 07:24:47;;;;;;;24.75;12.57;;;;;;;1.05;100.00;101047.59;5041218;28;20076;-65
2022/12/11 07:27:14;;;;;;;29.98;15.25;;;;;;;1.08;100.00;101054.34;5023583;28;20107;-64
2022/12/11 07:29:40;;;;;;;26.95;13.55;;;;;;;1.07;100.00;101053.53;5042630;28;20501;-65
2022/12/11 07:32:06;;;;;;;29.48;15.25;;;;;;;1.06;100.00;101053.59;5042828;28;20076;-64
2022/12/11 07:34:33;;;;;;;28.88;14.98;;;;;;;1.04;100.00;101053.69;5038871;28;20561;-64
2022/12/11 07:36:59;;;;;;;27.95;12.70;;;;;;;1.08;100.00;101060.38;5043220;28;20051;-64
2022/12/11 07:39:26;;;;;;;25.98;12.20;;;;;;;1.10;100.00;101062.88;5038001;28;20049;-65
2022/12/11 07:41:52;;;;;;;29.52;14.95;;;;;;;1.13;100.00;101060.94;5053350;28;20057;-64
2022/12/11 07:44:18;;;;;;;32.95;15.07;;;;;;;1.13;100.00;101058.38;5031072;28;20053;-64
2022/12/11 07:46:45;;;;;;;29.90;14.07;;;;;;;1.23;100.00;101050.16;5044940;28;20504;-64
2022/12/11 07:49:11;;;;;;;29.80;15.65;;;;;;;1.30;100.00;101049.75;5046695;28;20049;-64
2022/12/11 07:51:38;;;;;;;26.20;13.38;;;;;;;1.33;100.00;101049.59;5041037;28;20055;-64
2022/12/11 07:54:09;;;;;;;30.10;14.70;;;;;;;1.37;100.00;101047.66;5047150;28;20504;-63
2022/12/11 07:56:36;;;;;;;28.08;13.88;;;;;;;1.30;100.00;101049.75;5030079;28;20501;-63
2022/12/11 07:59:04;;;;;;;28.33;13.23;;;;;;;1.35;100.00;101052.94;5043413;28;20126;-63
2022/12/11 08:01:34;;;;;;;30.50;15.52;;;;;;;1.23;100.00;101061.31;5040547;28;20053;-65
2022/12/11 08:04:05;;;;;;;28.30;14.32;;;;;;;1.21;100.00;101065.72;5039096;28;20065;-67
2022/12/11 08:06:35;;;;;;;28.58;13.73;;;;;;;1.29;100.00;101073.09;5041181;28;20045;-64
2022/12/11 08:09:06;;;;;;;26.65;13.52;;;;;;;1.28;100.00;101068.84;5035750;28;20107;-63
2022/12/11 08:11:33;;;;;;;27.10;13.32;;;;;;;1.21;100.00;101072.66;5038713;28;20560;-63
2022/12/11 08:14:01;;;;;;;24.40;12.63;;;;;;;1.27;100.00;101072.31;5033495;28;20498;-64
2022/12/11 08:16:28;;;;;;;30.40;13.48;;;;;;;1.26;100.00;101068.91;5046563;28;20057;-65
2022/12/11 08:18:54;;;;;;;26.73;12.85;;;;;;;1.24;100.00;101069.91;5047432;28;20773;-66
2022/12/11 08:21:23;;;;;;;23.27;11.70;;;;;;;1.33;100.00;101070.28;5041157;28;20053;-66
2022/12/11 08:23:54;;;;;;;23.88;12.32;;;;;;;1.33;100.00;101070.28;5047988;28;20045;-64
2022/12/11 08:26:27;;;;;;;24.05;12.10;;;;;;;1.27;100.00;101072.31;5035698;28;20052;-66
2022/12/11 08:28:55;;;;;;;25.10;12.40;;;;;;;1.29;100.00;101067.91;5045532;28;20056;-65
2022/12/11 08:31:22;;;;;;;24.33;12.25;;;;;;;1.32;100.00;101066.00;5041372;28;20493;-65
2022/12/11 08:33:50;;;;;;;23.63;12.45;;;;;;;1.44;100.00;101068.88;5043563;28;20056;-65
2022/12/11 08:36:19;;;;;;;24.53;12.73;;;;;;;1.35;100.00;101073.63;5044790;28;20048;-65
2022/12/11 08:38:47;;;;;;;27.23;11.65;;;;;;;1.28;100.00;101076.59;5036259;28;20067;-65
2022/12/11 08:41:25;;;;;;;23.25;12.50;;;;;;;1.31;100.00;101066.94;5036454;28;20056;-65
2022/12/11 08:43:53;;;;;;;25.15;12.88;;;;;;;1.17;100.00;101067.63;5033428;28;20141;-64
2022/12/11 08:46:22;;;;;;;26.48;13.32;;;;;;;1.20;100.00;101074.41;5045004;28;20059;-65
2022/12/11 08:48:49;;;;;;;24.10;11.93;;;;;;;1.13;100.00;101060.94;5025518;28;20406;-65
2022/12/11 08:51:19;;;;;;;22.92;11.50;;;;;;;1.14;100.00;101057.47;5030559;28;20071;-63
2022/12/11 08:53:46;;;;;;;24.83;10.93;;;;;;;1.08;100.00;101057.78;5042755;28;20057;-64
2022/12/11 08:56:18;;;;;;;29.50;12.45;;;;;;;1.18;100.00;101048.63;5025030;28;20042;-66
2022/12/11 08:58:45;;;;;;;25.20;12.55;;;;;;;1.15;100.00;101047.97;5030470;28;20512;-63
2022/12/11 09:01:25;;;;;;;25.77;12.43;;;;;;;1.15;100.00;101053.13;5040298;28;20055;-63
2022/12/11 09:03:53;;;;;;;22.30;12.45;;;;;;;1.20;100.00;101053.75;5030741;28;20056;-63
2022/12/11 09:06:22;;;;;;;23.57;11.47;;;;;;;1.25;100.00;101053.47;5036304;28;20080;-63
2022/12/11 09:08:50;;;;;;;22.08;11.90;;;;;;;1.37;100.00;101048.50;5043423;28;20103;-64
2022/12/11 09:11:21;;;;;;;23.75;12.13;;;;;;;1.48;100.00;101050.50;5031710;28;20061;-64
2022/12/11 09:13:48;;;;;;;25.95;11.82;;;;;;;1.49;100.00;101044.44;5040253;28;20052;-64
2022/12/11 09:16:17;;;;;;;24.98;13.32;;;;;;;1.54;100.00;101042.41;5033866;28;20053;-63
2022/12/11 09:18:44;;;;;;;;;;;;;;;1.64;100.00;101044.53;5023991;28;20310;-64
2022/12/11 09:21:13;;;;;;;19.40;10.77;;;;;;;1.64;100.00;101050.50;5033519;28;20365;-64
2022/12/11 09:23:39;;;;;;;23.88;12.73;;;;;;;1.63;100.00;101046.28;5031710;28;20433;-65
2022/12/11 09:26:09;;;;;;;21.05;10.98;;;;;;;1.75;100.00;101044.78;5044623;28;20111;-65
2022/12/11 09:28:36;;;;;;;21.60;11.82;;;;;;;1.57;100.00;101044.84;5039022;28;20440;-64
2022/12/11 09:31:22;;;;;;;22.40;12.07;;;;;;;1.64;100.00;101045.34;5036670;28;20692;-64
2022/12/11 09:33:50;;;;;;;25.65;11.85;;;;;;;1.61;100.00;101048.13;5038957;28;20057;-63
2022/12/11 09:36:17;;;;;;;22.50;11.55;;;;;;;1.59;100.00;101042.19;5034975;28;20040;-64
2022/12/11 09:38:44;;;;;;;22.73;12.00;;;;;;;1.68;100.00;101043.44;5045230;28;20951;-64
2022/12/11 09:41:19;;;;;;;22.27;11.65;;;;;;;1.66;100.00;101043.50;5028774;28;20045;-64
2022/12/11 09:44:01;;;;;;;21.52;11.77;;;;;;;1.69;100.00;101050.28;5040318;28;20176;-63
2022/12/11 09:46:30;;;;;;;24.50;11.90;;;;;;;1.71;100.00;101049.28;5034802;28;20052;-65
2022/12/11 09:49:01;;;;;;;23.33;11.98;;;;;;;1.72;100.00;101050.94;5033427;28;20386;-64
2022/12/11 09:51:41;;;;;;;23.60;12.10;;;;;;;1.75;100.00;101045.59;5044335;28;20062;-64
2022/12/11 09:54:12;;;;;;;24.95;11.88;;;;;;;1.73;100.00;101042.28;5026749;28;20057;-64
2022/12/11 09:56:43;;;;;;;23.23;10.93;;;;;;;1.75;100.00;101048.19;5041427;28;20708;-64
2022/12/11 09:59:27;;;;;;;24.70;11.70;;;;;;;1.78;100.00;101039.41;5034905;28;20048;-65
2022/12/11 10:02:13;;;;;;;23.98;11.93;;;;;;;1.81;100.00;101034.09;5039972;28;20053;-64
2022/12/11 10:04:58;;;;;;;23.40;12.07;;;;;;;1.77;100.00;101036.00;5032048;28;20041;-64
2022/12/11 10:07:39;;;;;;;25.20;11.40;;;;;;;1.76;100.00;101031.75;5043374;28;20088;-65
2022/12/11 10:10:34;;;;;;;22.58;11.15;;;;;;;1.72;100.00;101035.41;5022558;28;20710;-64
2022/12/11 10:13:15;;;;;;;22.70;11.88;;;;;;;1.83;100.00;101024.50;5044517;28;20391;-64
2022/12/11 10:15:58;;;;;;;21.38;11.18;;;;;;;1.84;100.00;101027.91;5034917;28;20049;-63
2022/12/11 10:18:27;;;;;;;26.77;12.60;;;;;;;1.83;100.00;101024.50;5040884;28;20053;-63
2022/12/11 10:20:55;;;;;;;;;;;;;;;1.90;100.00;101027.56;5038397;28;20099;-65
2022/12/11 10:23:34;;;;;;;22.38;10.80;;;;;;;1.89;100.00;101031.91;5021470;28;19925;-64
2022/12/11 10:26:13;;;;;;;23.52;12.02;;;;;;;1.91;100.00;101029.25;5041269;28;20474;-64
2022/12/11 10:28:40;;;;;;;21.55;11.48;;;;;;;1.88;100.00;101032.84;5031483;28;20059;-64
2022/12/11 10:31:12;;;;;;;24.63;13.25;;;;;;;1.87;100.00;101022.56;5041558;28;20053;-64
2022/12/11 10:33:57;;;;;;;21.95;12.27;;;;;;;1.90;100.00;101020.66;5035661;28;20056;-64
2022/12/11 10:36:33;;;;;;;23.98;11.50;;;;;;;2.04;100.00;101022.47;5043773;28;20044;-64
2022/12/11 10:39:00;;;;;;;20.98;11.63;;;;;;;2.09;100.00;101014.44;5032377;28;20068;-65
2022/12/11 10:41:48;;;;;;;21.83;11.38;;;;;;;2.20;100.00;101013.84;5035392;28;20049;-64
2022/12/11 10:44:20;;;;;;;22.35;12.88;;;;;;;2.15;100.00;101014.91;5016721;28;20057;-64
2022/12/11 10:47:07;;;;;;;21.63;12.23;;;;;;;2.19;100.00;101010.38;5035168;28;20079;-63
2022/12/11 10:49:36;;;;;;;21.60;11.50;;;;;;;2.16;100.00;101014.00;5032276;28;20056;-63
2022/12/11 10:52:20;;;;;;;22.67;11.45;;;;;;;2.11;100.00;101010.81;5027439;28;20057;-63
2022/12/11 10:54:55;;;;;;;22.30;11.50;;;;;;;2.17;100.00;101012.25;5032103;28;20054;-63
2022/12/11 10:57:28;;;;;;;23.80;12.43;;;;;;;2.20;100.00;101008.66;5026801;28;20603;-63
2022/12/11 10:59:54;;;;;;;24.30;12.45;;;;;;;2.15;100.00;101008.91;5027981;28;20076;-64
2022/12/11 11:02:30;;;;;;;22.30;12.60;;;;;;;2.09;100.00;101007.50;5025430;28;20685;-63
2022/12/11 11:04:59;;;;;;;22.80;12.60;;;;;;;2.13;100.00;101008.16;5029284;28;20080;-64
2022/12/11 11:07:27;;;;;;;;;;;;;;;2.23;100.00;101003.28;5031157;28;20052;-65
2022/12/11 11:10:16;;;;;;;22.52;13.40;;;;;;;2.10;100.00;101010.94;5023051;28;20381;-63
2022/12/11 11:12:46;;;;;;;24.17;13.98;;;;;;;2.05;100.00;101000.81;5025288;28;20148;-64
2022/12/11 11:15:29;;;;;;;21.45;12.38;;;;;;;2.19;100.00;101000.03;5019394;28;20050;-67
2022/12/11 11:18:02;;;;;;;24.15;12.90;;;;;;;2.05;100.00;100995.66;5029658;28;20052;-63
2022/12/11 11:20:30;;;;;;;29.33;14.88;;;;;;;2.03;100.00;101000.09;5021761;28;20050;-65
2022/12/11 11:23:03;;;;;;;24.23;14.45;;;;;;;2.05;100.00;100994.81;5036564;28;20053;-65
2022/12/11 11:25:32;;;;;;;25.17;14.65;;;;;;;2.03;100.00;100997.50;5016274;28;20489;-65
2022/12/11 11:28:01;;;;;;;27.55;15.07;;;;;;;2.01;100.00;100996.75;5021213;28;20088;-64
2022/12/11 11:30:29;;;;;;;;;;;;;;;2.04;100.00;100996.59;5032434;28;20057;-64
2022/12/11 11:33:01;;;;;;;22.98;13.80;;;;;;;2.01;100.00;100990.75;5031132;28;19971;-63
2022/12/11 11:35:29;;;;;;;28.17;14.98;;;;;;;2.06;100.00;100988.72;5042153;28;20045;-64